sensor_id;sensor_type;location;lat;lon;timestamp;pressure;altitude;pressure_sealevel;temperature;humidity
83563;BME280;73535;52.500;13.482;2024-01-30T00:01:22;102543.91;;;3.38;67.19
83563;BME280;73535;52.500;13.482;2024-01-30T00:03:47;102550.84;;;3.39;66.79
83563;BME280;73535;52.500;13.482;2024-01-30T00:06:12;102542.22;;;3.32;67.10
83563;BME280;73535;52.500;13.482;2024-01-30T00:08:37;102546.59;;;3.30;67.18
83563;BME280;73535;52.500;13.482;2024-01-30T00:11:03;102550.94;;;3.27;67.11
83563;BME280;73535;52.500;13.482;2024-01-30T00:13:28;102547.50;;;3.25;67.15
83563;BME280;73535;52.500;13.482;2024-01-30T00:15:53;102551.00;;;3.21;66.87
83563;BME280;73535;52.500;13.482;2024-01-30T00:18:19;102549.31;;;3.15;67.51
83563;BME280;73535;52.500;13.482;2024-01-30T00:20:44;102553.69;;;3.12;67.96
83563;BME280;73535;52.500;13.482;2024-01-30T00:23:09;102551.06;;;3.12;67.47
83563;BME280;73535;52.500;13.482;2024-01-30T00:25:35;102553.69;;;3.13;67.65
83563;BME280;73535;52.500;13.482;2024-01-30T00:28:00;102552.84;;;3.10;67.93
83563;BME280;73535;52.500;13.482;2024-01-30T00:30:25;102555.44;;;3.10;67.69
83563;BME280;73535;52.500;13.482;2024-01-30T00:32:50;102554.53;;;3.11;67.69
83563;BME280;73535;52.500;13.482;2024-01-30T00:35:16;102551.97;;;3.08;67.43
83563;BME280;73535;52.500;13.482;2024-01-30T00:37:41;102551.97;;;3.08;68.11
83563;BME280;73535;52.500;13.482;2024-01-30T00:40:06;102546.78;;;3.08;67.91
83563;BME280;73535;52.500;13.482;2024-01-30T00:42:32;102539.91;;;3.04;67.81
83563;BME280;73535;52.500;13.482;2024-01-30T00:44:57;102547.72;;;2.99;68.22
83563;BME280;73535;52.500;13.482;2024-01-30T00:47:23;102539.94;;;2.98;67.86
83563;BME280;73535;52.500;13.482;2024-01-30T00:49:48;102540.84;;;2.95;67.91
83563;BME280;73535;52.500;13.482;2024-01-30T00:52:13;102543.47;;;2.89;68.23
83563;BME280;73535;52.500;13.482;2024-01-30T00:54:38;102544.34;;;2.90;68.29
83563;BME280;73535;52.500;13.482;2024-01-30T00:57:04;102540.03;;;2.89;68.06
83563;BME280;73535;52.500;13.482;2024-01-30T00:59:29;102542.66;;;2.87;68.28
83563;BME280;73535;52.500;13.482;2024-01-30T01:01:54;102546.16;;;2.80;68.44
83563;BME280;73535;52.500;13.482;2024-01-30T01:04:19;102547.03;;;2.77;68.38
83563;BME280;73535;52.500;13.482;2024-01-30T01:06:46;102551.31;;;2.83;68.43
83563;BME280;73535;52.500;13.482;2024-01-30T01:09:11;102548.69;;;2.86;68.39
83563;BME280;73535;52.500;13.482;2024-01-30T01:11:37;102546.16;;;2.80;68.44
83563;BME280;73535;52.500;13.482;2024-01-30T01:14:03;102546.19;;;2.75;68.60
83563;BME280;73535;52.500;13.482;2024-01-30T01:16:28;102538.44;;;2.68;68.95
83563;BME280;73535;52.500;13.482;2024-01-30T01:18:53;102542.78;;;2.67;69.06
83563;BME280;73535;52.500;13.482;2024-01-30T01:21:18;102542.81;;;2.66;69.28
83563;BME280;73535;52.500;13.482;2024-01-30T01:23:44;102538.47;;;2.66;68.82
83563;BME280;73535;52.500;13.482;2024-01-30T01:26:09;102542.81;;;2.61;69.14
83563;BME280;73535;52.500;13.482;2024-01-30T01:28:35;102548.00;;;2.61;69.22
83563;BME280;73535;52.500;13.482;2024-01-30T01:31:00;102545.41;;;2.63;69.09
83563;BME280;73535;52.500;13.482;2024-01-30T01:33:30;102543.72;;;2.53;69.45
83563;BME280;73535;52.500;13.482;2024-01-30T01:35:57;102549.00;;;2.45;69.66
83563;BME280;73535;52.500;13.482;2024-01-30T01:38:22;102547.22;;;2.47;69.67
83563;BME280;73535;52.500;13.482;2024-01-30T01:40:47;102536.00;;;2.48;69.67
83563;BME280;73535;52.500;13.482;2024-01-30T01:43:12;102535.16;;;2.45;69.93
83563;BME280;73535;52.500;13.482;2024-01-30T01:45:38;102540.34;;;2.43;69.83
83563;BME280;73535;52.500;13.482;2024-01-30T01:48:03;102545.53;;;2.45;69.86
83563;BME280;73535;52.500;13.482;2024-01-30T01:50:28;102543.81;;;2.42;69.70
83563;BME280;73535;52.500;13.482;2024-01-30T01:52:54;102542.97;;;2.43;69.74
83563;BME280;73535;52.500;13.482;2024-01-30T01:55:21;102546.41;;;2.44;69.88
83563;BME280;73535;52.500;13.482;2024-01-30T01:57:47;102542.97;;;2.43;69.98
83563;BME280;73535;52.500;13.482;2024-01-30T02:00:13;102536.88;;;2.44;70.03
83563;BME280;73535;52.500;13.482;2024-01-30T02:02:39;102533.47;;;2.41;70.45
83563;BME280;73535;52.500;13.482;2024-01-30T02:05:04;102538.63;;;2.44;70.20
83563;BME280;73535;52.500;13.482;2024-01-30T02:07:29;102536.06;;;2.39;70.29
83563;BME280;73535;52.500;13.482;2024-01-30T02:09:55;102542.13;;;2.34;70.60
83563;BME280;73535;52.500;13.482;2024-01-30T02:12:20;102536.97;;;2.32;70.12
83563;BME280;73535;52.500;13.482;2024-01-30T02:14:49;102536.13;;;2.28;70.03
83563;BME280;73535;52.500;13.482;2024-01-30T02:17:15;102542.19;;;2.29;69.80
83563;BME280;73535;52.500;13.482;2024-01-30T02:19:40;102543.88;;;2.30;69.91
83563;BME280;73535;52.500;13.482;2024-01-30T02:22:06;102544.75;;;2.31;69.81
83563;BME280;73535;52.500;13.482;2024-01-30T02:24:32;102541.31;;;2.28;69.70
83563;BME280;73535;52.500;13.482;2024-01-30T02:26:57;102537.84;;;2.31;69.78
83563;BME280;73535;52.500;13.482;2024-01-30T02:29:22;102531.75;;;2.34;69.88
83563;BME280;73535;52.500;13.482;2024-01-30T02:31:48;102539.53;;;2.37;70.11
83563;BME280;73535;52.500;13.482;2024-01-30T02:34:13;102537.78;;;2.40;70.28
83563;BME280;73535;52.500;13.482;2024-01-30T02:36:42;102533.44;;;2.42;70.30
83563;BME280;73535;52.500;13.482;2024-01-30T02:39:07;102529.97;;;2.42;70.20
83563;BME280;73535;52.500;13.482;2024-01-30T02:41:33;102537.75;;;2.42;70.14
83563;BME280;73535;52.500;13.482;2024-01-30T02:43:58;102535.16;;;2.43;69.97
83563;BME280;73535;52.500;13.482;2024-01-30T02:46:23;102525.69;;;2.41;70.42
83563;BME280;73535;52.500;13.482;2024-01-30T02:48:48;102530.84;;;2.39;70.11
83563;BME280;73535;52.500;13.482;2024-01-30T02:51:14;102533.44;;;2.42;69.81
83563;BME280;73535;52.500;13.482;2024-01-30T02:53:39;102523.06;;;2.42;69.94
83563;BME280;73535;52.500;13.482;2024-01-30T02:56:04;102523.91;;;2.44;69.89
83563;BME280;73535;52.500;13.482;2024-01-30T02:58:30;102514.41;;;2.42;70.36
83563;BME280;73535;52.500;13.482;2024-01-30T03:00:56;102517.91;;;2.41;70.12
83563;BME280;73535;52.500;13.482;2024-01-30T03:03:21;102523.06;;;2.39;70.17
83563;BME280;73535;52.500;13.482;2024-01-30T03:05:46;102518.75;;;2.40;70.37
83563;BME280;73535;52.500;13.482;2024-01-30T03:08:11;102510.13;;;2.36;70.73
83563;BME280;73535;52.500;13.482;2024-01-30T03:10:37;102511.84;;;2.37;70.68
83563;BME280;73535;52.500;13.482;2024-01-30T03:13:02;102510.13;;;2.36;70.62
83563;BME280;73535;52.500;13.482;2024-01-30T03:15:27;102509.25;;;2.37;70.71
83563;BME280;73535;52.500;13.482;2024-01-30T03:17:53;102505.78;;;2.35;70.76
83563;BME280;73535;52.500;13.482;2024-01-30T03:20:18;102508.47;;;2.29;70.86
83563;BME280;73535;52.500;13.482;2024-01-30T03:22:44;102508.44;;;2.32;70.70
83563;BME280;73535;52.500;13.482;2024-01-30T03:25:09;102513.66;;;2.29;70.60
83563;BME280;73535;52.500;13.482;2024-01-30T03:27:34;102511.06;;;2.29;70.39
83563;BME280;73535;52.500;13.482;2024-01-30T03:29:59;102502.38;;;2.35;70.82
83563;BME280;73535;52.500;13.482;2024-01-30T03:32:24;102505.78;;;2.35;70.57
83563;BME280;73535;52.500;13.482;2024-01-30T03:34:50;102508.41;;;2.34;70.55
83563;BME280;73535;52.500;13.482;2024-01-30T03:37:15;102503.22;;;2.37;70.71
83563;BME280;73535;52.500;13.482;2024-01-30T03:39:40;102508.38;;;2.38;70.86
83563;BME280;73535;52.500;13.482;2024-01-30T03:42:05;102506.63;;;2.39;70.63
83563;BME280;73535;52.500;13.482;2024-01-30T03:44:31;102504.91;;;2.42;71.02
83563;BME280;73535;52.500;13.482;2024-01-30T03:46:56;102506.66;;;2.40;71.23
83563;BME280;73535;52.500;13.482;2024-01-30T03:49:21;102505.75;;;2.46;71.11
83563;BME280;73535;52.500;13.482;2024-01-30T03:51:49;102504.91;;;2.41;71.23
83563;BME280;73535;52.500;13.482;2024-01-30T03:54:14;102497.09;;;2.42;71.30
83563;BME280;73535;52.500;13.482;2024-01-30T03:56:40;102498.88;;;2.37;71.14
83563;BME280;73535;52.500;13.482;2024-01-30T03:59:05;102499.78;;;2.32;71.37
83563;BME280;73535;52.500;13.482;2024-01-30T04:01:30;102489.41;;;2.32;71.08
83563;BME280;73535;52.500;13.482;2024-01-30T04:03:55;102497.19;;;2.27;71.43
83563;BME280;73535;52.500;13.482;2024-01-30T04:06:21;102498.94;;;2.28;71.06
83563;BME280;73535;52.500;13.482;2024-01-30T04:08:46;102505.88;;;2.24;71.62
83563;BME280;73535;52.500;13.482;2024-01-30T04:11:11;102499.81;;;2.27;71.44
83563;BME280;73535;52.500;13.482;2024-01-30T04:13:36;102505.00;;;2.25;71.85
83563;BME280;73535;52.500;13.482;2024-01-30T04:16:02;102503.28;;;2.26;71.84
83563;BME280;73535;52.500;13.482;2024-01-30T04:18:27;102496.34;;;2.28;72.03
83563;BME280;73535;52.500;13.482;2024-01-30T04:20:53;102501.50;;;2.29;71.66
83563;BME280;73535;52.500;13.482;2024-01-30T04:23:18;102498.91;;;2.29;71.90
83563;BME280;73535;52.500;13.482;2024-01-30T04:25:43;102502.38;;;2.30;71.47
83563;BME280;73535;52.500;13.482;2024-01-30T04:28:09;102511.03;;;2.32;71.67
83563;BME280;73535;52.500;13.482;2024-01-30T04:30:37;102503.25;;;2.32;71.97
83563;BME280;73535;52.500;13.482;2024-01-30T04:33:02;102507.53;;;2.33;71.78
83563;BME280;73535;52.500;13.482;2024-01-30T04:35:27;102503.22;;;2.34;71.86
83563;BME280;73535;52.500;13.482;2024-01-30T04:37:52;102505.00;;;2.28;71.50
83563;BME280;73535;52.500;13.482;2024-01-30T04:40:18;102499.81;;;2.27;71.88
83563;BME280;73535;52.500;13.482;2024-01-30T04:42:43;102498.13;;;2.23;72.17
83563;BME280;73535;52.500;13.482;2024-01-30T04:45:09;102501.53;;;2.23;72.08
83563;BME280;73535;52.500;13.482;2024-01-30T04:47:34;102489.44;;;2.25;72.05
83563;BME280;73535;52.500;13.482;2024-01-30T04:50:00;102490.31;;;2.26;72.31
83563;BME280;73535;52.500;13.482;2024-01-30T04:52:26;102487.72;;;2.24;72.37
83563;BME280;73535;52.500;13.482;2024-01-30T04:54:51;102488.59;;;2.22;72.41
83563;BME280;73535;52.500;13.482;2024-01-30T04:57:16;102484.25;;;2.24;72.46
83563;BME280;73535;52.500;13.482;2024-01-30T04:59:42;102488.56;;;2.26;72.20
83563;BME280;73535;52.500;13.482;2024-01-30T05:02:07;102490.31;;;2.24;72.42
83563;BME280;73535;52.500;13.482;2024-01-30T05:04:32;102489.44;;;2.25;72.53
83563;BME280;73535;52.500;13.482;2024-01-30T05:06:57;102492.03;;;2.28;72.81
83563;BME280;73535;52.500;13.482;2024-01-30T05:09:23;102499.78;;;2.32;72.51
83563;BME280;73535;52.500;13.482;2024-01-30T05:11:48;102498.91;;;2.31;72.87
83563;BME280;73535;52.500;13.482;2024-01-30T05:14:13;102498.06;;;2.32;72.41
83563;BME280;73535;52.500;13.482;2024-01-30T05:16:40;102490.28;;;2.32;72.49
83563;BME280;73535;52.500;13.482;2024-01-30T05:19:05;102490.28;;;2.31;72.60
83563;BME280;73535;52.500;13.482;2024-01-30T05:21:30;102492.00;;;2.30;72.79
83563;BME280;73535;52.500;13.482;2024-01-30T05:23:55;102497.22;;;2.25;72.85
83563;BME280;73535;52.500;13.482;2024-01-30T05:26:21;102490.31;;;2.26;72.61
83563;BME280;73535;52.500;13.482;2024-01-30T05:28:47;102494.63;;;2.28;72.97
83563;BME280;73535;52.500;13.482;2024-01-30T05:31:13;102495.50;;;2.26;73.01
83563;BME280;73535;52.500;13.482;2024-01-30T05:33:38;102490.31;;;2.26;73.27
83563;BME280;73535;52.500;13.482;2024-01-30T05:36:03;102502.41;;;2.28;72.88
83563;BME280;73535;52.500;13.482;2024-01-30T05:38:29;102494.63;;;2.25;72.97
83563;BME280;73535;52.500;13.482;2024-01-30T05:40:55;102492.91;;;2.26;73.09
83563;BME280;73535;52.500;13.482;2024-01-30T05:43:20;102485.97;;;2.26;73.20
83563;BME280;73535;52.500;13.482;2024-01-30T05:45:45;102486.88;;;2.22;72.89
83563;BME280;73535;52.500;13.482;2024-01-30T05:48:11;102483.41;;;2.22;73.22
83563;BME280;73535;52.500;13.482;2024-01-30T05:50:36;102478.25;;;2.19;73.41
83563;BME280;73535;52.500;13.482;2024-01-30T05:53:01;102479.97;;;2.23;73.53
83563;BME280;73535;52.500;13.482;2024-01-30T05:55:26;102486.03;;;2.20;73.22
83563;BME280;73535;52.500;13.482;2024-01-30T05:57:52;102482.56;;;2.23;73.09
83563;BME280;73535;52.500;13.482;2024-01-30T06:00:17;102482.53;;;2.21;73.01
83563;BME280;73535;52.500;13.482;2024-01-30T06:02:43;102479.94;;;2.24;73.20
83563;BME280;73535;52.500;13.482;2024-01-30T06:05:08;102485.16;;;2.23;73.61
83563;BME280;73535;52.500;13.482;2024-01-30T06:07:33;102488.59;;;2.22;73.53
83563;BME280;73535;52.500;13.482;2024-01-30T06:09:58;102484.25;;;2.25;73.20
83563;BME280;73535;52.500;13.482;2024-01-30T06:12:25;102480.84;;;2.20;73.13
83563;BME280;73535;52.500;13.482;2024-01-30T06:14:51;102486.00;;;2.22;73.21
83563;BME280;73535;52.500;13.482;2024-01-30T06:17:16;102484.28;;;2.19;73.37
83563;BME280;73535;52.500;13.482;2024-01-30T06:19:41;102475.59;;;2.28;73.11
83563;BME280;73535;52.500;13.482;2024-01-30T06:22:06;102484.28;;;2.22;73.09
83563;BME280;73535;52.500;13.482;2024-01-30T06:24:32;102486.88;;;2.19;73.19
83563;BME280;73535;52.500;13.482;2024-01-30T06:26:58;102483.44;;;2.19;73.65
83563;BME280;73535;52.500;13.482;2024-01-30T06:29:23;102476.50;;;2.18;73.57
83563;BME280;73535;52.500;13.482;2024-01-30T06:31:50;102480.88;;;2.13;73.71
83563;BME280;73535;52.500;13.482;2024-01-30T06:34:15;102482.63;;;2.03;73.61
83563;BME280;73535;52.500;13.482;2024-01-30T06:36:40;102476.63;;;2.03;74.14
83563;BME280;73535;52.500;13.482;2024-01-30T06:39:05;102482.66;;;2.00;74.26
83563;BME280;73535;52.500;13.482;2024-01-30T06:41:30;102480.94;;;2.05;73.88
83563;BME280;73535;52.500;13.482;2024-01-30T06:43:56;102488.75;;;1.95;74.16
83563;BME280;73535;52.500;13.482;2024-01-30T06:46:21;102483.59;;;1.89;74.48
83563;BME280;73535;52.500;13.482;2024-01-30T06:48:46;102487.09;;;1.85;74.90
83563;BME280;73535;52.500;13.482;2024-01-30T06:51:12;102481.91;;;1.82;75.02
83563;BME280;73535;52.500;13.482;2024-01-30T06:53:37;102479.31;;;1.79;74.85
83563;BME280;73535;52.500;13.482;2024-01-30T06:56:02;102477.56;;;1.87;75.15
83563;BME280;73535;52.500;13.482;2024-01-30T06:58:28;102473.22;;;1.89;75.26
83563;BME280;73535;52.500;13.482;2024-01-30T07:00:53;102479.31;;;1.82;75.15
83563;BME280;73535;52.500;13.482;2024-01-30T07:03:18;102487.94;;;1.81;75.63
83563;BME280;73535;52.500;13.482;2024-01-30T07:05:44;102486.22;;;1.83;75.26
83563;BME280;73535;52.500;13.482;2024-01-30T07:08:09;102486.22;;;1.81;75.40
83563;BME280;73535;52.500;13.482;2024-01-30T07:10:34;102481.84;;;1.94;74.99
83563;BME280;73535;52.500;13.482;2024-01-30T07:13:00;102482.72;;;1.93;75.28
83563;BME280;73535;52.500;13.482;2024-01-30T07:15:26;102482.72;;;1.90;75.27
83563;BME280;73535;52.500;13.482;2024-01-30T07:17:51;102486.19;;;1.90;75.35
83563;BME280;73535;52.500;13.482;2024-01-30T07:20:16;102486.16;;;1.96;75.34
83563;BME280;73535;52.500;13.482;2024-01-30T07:22:43;102483.53;;;1.98;75.55
83563;BME280;73535;52.500;13.482;2024-01-30T07:25:09;102485.25;;;2.00;75.06
83563;BME280;73535;52.500;13.482;2024-01-30T07:27:34;102488.75;;;1.96;75.15
83563;BME280;73535;52.500;13.482;2024-01-30T07:29:59;102487.84;;;2.00;75.44
83563;BME280;73535;52.500;13.482;2024-01-30T07:32:24;102469.69;;;2.03;75.18
83563;BME280;73535;52.500;13.482;2024-01-30T07:34:50;102474.84;;;2.09;74.73
83563;BME280;73535;52.500;13.482;2024-01-30T07:37:15;102473.13;;;2.08;74.83
83563;BME280;73535;52.500;13.482;2024-01-30T07:39:41;102468.81;;;2.09;75.03
83563;BME280;73535;52.500;13.482;2024-01-30T07:42:06;102476.53;;;2.15;74.88
83563;BME280;73535;52.500;13.482;2024-01-30T07:44:32;102468.75;;;2.15;75.12
83563;BME280;73535;52.500;13.482;2024-01-30T07:46:57;102474.78;;;2.20;74.90
83563;BME280;73535;52.500;13.482;2024-01-30T07:49:22;102465.22;;;2.28;74.68
83563;BME280;73535;52.500;13.482;2024-01-30T07:51:48;102474.63;;;2.38;74.49
83563;BME280;73535;52.500;13.482;2024-01-30T07:54:13;102467.75;;;2.37;74.80
83563;BME280;73535;52.500;13.482;2024-01-30T07:56:38;102474.63;;;2.38;74.99
83563;BME280;73535;52.500;13.482;2024-01-30T07:59:10;102472.91;;;2.40;74.86
83563;BME280;73535;52.500;13.482;2024-01-30T08:01:36;102467.72;;;2.43;74.88
83563;BME280;73535;52.500;13.482;2024-01-30T08:04:01;102473.72;;;2.47;75.04
83563;BME280;73535;52.500;13.482;2024-01-30T08:06:26;102459.84;;;2.52;74.81
83563;BME280;73535;52.500;13.482;2024-01-30T08:08:51;102456.38;;;2.53;74.86
83563;BME280;73535;52.500;13.482;2024-01-30T08:11:20;102457.16;;;2.61;74.89
83563;BME280;73535;52.500;13.482;2024-01-30T08:13:45;102464.78;;;2.79;74.67
83563;BME280;73535;52.500;13.482;2024-01-30T08:16:11;102457.88;;;2.80;74.47
83563;BME280;73535;52.500;13.482;2024-01-30T08:18:36;102457.00;;;2.79;74.05
83563;BME280;73535;52.500;13.482;2024-01-30T08:21:01;102461.28;;;2.87;74.03
83563;BME280;73535;52.500;13.482;2024-01-30T08:23:26;102460.38;;;2.88;74.04
83563;BME280;73535;52.500;13.482;2024-01-30T08:25:51;102459.47;;;2.95;74.35
83563;BME280;73535;52.500;13.482;2024-01-30T08:28:17;102459.41;;;2.99;73.80
83563;BME280;73535;52.500;13.482;2024-01-30T08:30:42;102458.44;;;3.12;73.51
83563;BME280;73535;52.500;13.482;2024-01-30T08:33:07;102456.66;;;3.14;73.63
83563;BME280;73535;52.500;13.482;2024-01-30T08:35:32;102458.34;;;3.20;73.47
83563;BME280;73535;52.500;13.482;2024-01-30T08:37:58;102456.53;;;3.28;73.50
83563;BME280;73535;52.500;13.482;2024-01-30T08:40:24;102450.50;;;3.23;72.95
83563;BME280;73535;52.500;13.482;2024-01-30T08:42:49;102448.75;;;3.28;73.11
83563;BME280;73535;52.500;13.482;2024-01-30T08:45:14;102448.66;;;3.34;72.41
83563;BME280;73535;52.500;13.482;2024-01-30T08:47:40;102449.41;;;3.45;72.34
83563;BME280;73535;52.500;13.482;2024-01-30T08:50:06;102434.63;;;3.49;72.32
83563;BME280;73535;52.500;13.482;2024-01-30T08:52:31;102440.59;;;3.55;71.87
83563;BME280;73535;52.500;13.482;2024-01-30T08:54:56;102442.31;;;3.59;72.08
83563;BME280;73535;52.500;13.482;2024-01-30T08:57:21;102439.63;;;3.65;71.59
83563;BME280;73535;52.500;13.482;2024-01-30T08:59:47;102448.09;;;3.78;71.50
83563;BME280;73535;52.500;13.482;2024-01-30T09:02:13;102444.53;;;3.86;71.56
83563;BME280;73535;52.500;13.482;2024-01-30T09:04:41;102440.16;;;3.91;71.15
83563;BME280;73535;52.500;13.482;2024-01-30T09:07:06;102440.81;;;4.04;71.22
83563;BME280;73535;52.500;13.482;2024-01-30T09:09:34;102442.41;;;4.13;70.83
83563;BME280;73535;52.500;13.482;2024-01-30T09:11:59;102435.38;;;4.19;70.58
83563;BME280;73535;52.500;13.482;2024-01-30T09:14:29;102436.06;;;4.30;69.86
83563;BME280;73535;52.500;13.482;2024-01-30T09:16:54;102442.81;;;4.43;69.54
83563;BME280;73535;52.500;13.482;2024-01-30T09:19:20;102442.66;;;4.54;69.18
83563;BME280;73535;52.500;13.482;2024-01-30T09:21:45;102447.75;;;4.60;68.75
83563;BME280;73535;52.500;13.482;2024-01-30T09:24:10;102445.00;;;4.68;68.25
83563;BME280;73535;52.500;13.482;2024-01-30T09:26:35;102444.03;;;4.73;68.19
83563;BME280;73535;52.500;13.482;2024-01-30T09:29:01;102447.44;;;4.78;68.08
83563;BME280;73535;52.500;13.482;2024-01-30T09:31:26;102439.53;;;4.84;67.89
83563;BME280;73535;52.500;13.482;2024-01-30T09:33:51;102435.91;;;4.91;67.69
83563;BME280;73535;52.500;13.482;2024-01-30T09:36:19;102437.53;;;4.97;67.57
83563;BME280;73535;52.500;13.482;2024-01-30T09:38:44;102436.63;;;5.01;67.22
83563;BME280;73535;52.500;13.482;2024-01-30T09:41:19;102442.63;;;5.04;66.97
83563;BME280;73535;52.500;13.482;2024-01-30T09:43:50;102431.19;;;5.13;66.84
83563;BME280;73535;52.500;13.482;2024-01-30T09:46:16;102434.59;;;5.17;66.42
83563;BME280;73535;52.500;13.482;2024-01-30T09:48:42;102443.19;;;5.22;66.62
83563;BME280;73535;52.500;13.482;2024-01-30T09:51:09;102426.63;;;5.24;66.06
83563;BME280;73535;52.500;13.482;2024-01-30T09:53:34;102429.97;;;5.31;66.13
83563;BME280;73535;52.500;13.482;2024-01-30T09:56:01;102432.47;;;5.35;66.13
83563;BME280;73535;52.500;13.482;2024-01-30T09:58:27;102430.66;;;5.39;65.55
83563;BME280;73535;52.500;13.482;2024-01-30T10:00:52;102428.75;;;5.47;65.78
83563;BME280;73535;52.500;13.482;2024-01-30T10:03:18;102431.25;;;5.53;65.29
83563;BME280;73535;52.500;13.482;2024-01-30T10:05:51;102435.47;;;5.60;65.13
83563;BME280;73535;52.500;13.482;2024-01-30T10:08:17;102426.66;;;5.64;64.58
83563;BME280;73535;52.500;13.482;2024-01-30T10:10:45;102424.88;;;5.66;64.59
83563;BME280;73535;52.500;13.482;2024-01-30T10:13:10;102416.91;;;5.74;64.47
83563;BME280;73535;52.500;13.482;2024-01-30T10:15:37;102422.84;;;5.80;64.34
83563;BME280;73535;52.500;13.482;2024-01-30T10:18:04;102418.41;;;5.84;64.40
83563;BME280;73535;52.500;13.482;2024-01-30T10:20:31;102414.81;;;5.91;63.71
83563;BME280;73535;52.500;13.482;2024-01-30T10:22:57;102415.56;;;5.96;63.36
83563;BME280;73535;52.500;13.482;2024-01-30T10:25:22;102412.84;;;6.00;63.41
83563;BME280;73535;52.500;13.482;2024-01-30T10:27:52;102401.38;;;6.07;62.89
83563;BME280;73535;52.500;13.482;2024-01-30T10:30:18;102403.03;;;6.11;62.30
83563;BME280;73535;52.500;13.482;2024-01-30T10:32:43;102402.88;;;6.17;62.60
83563;BME280;73535;52.500;13.482;2024-01-30T10:35:09;102403.56;;;6.24;62.39
83563;BME280;73535;52.500;13.482;2024-01-30T10:37:34;102392.16;;;6.30;61.73
83563;BME280;73535;52.500;13.482;2024-01-30T10:40:03;102399.84;;;6.34;61.88
83563;BME280;73535;52.500;13.482;2024-01-30T10:42:32;102400.56;;;6.41;61.10
83563;BME280;73535;52.500;13.482;2024-01-30T10:45:07;102393.41;;;6.49;61.16
83563;BME280;73535;52.500;13.482;2024-01-30T10:47:35;102395.84;;;6.55;60.85
83563;BME280;73535;52.500;13.482;2024-01-30T10:50:01;102397.44;;;6.60;60.45
83563;BME280;73535;52.500;13.482;2024-01-30T10:52:28;102395.56;;;6.65;60.35
83563;BME280;73535;52.500;13.482;2024-01-30T10:54:55;102406.72;;;6.72;60.36
83563;BME280;73535;52.500;13.482;2024-01-30T10:57:23;102391.78;;;6.77;59.90
83563;BME280;73535;52.500;13.482;2024-01-30T10:59:49;102389.91;;;6.82;59.41
83563;BME280;73535;52.500;13.482;2024-01-30T11:02:14;102387.97;;;6.90;59.62
83563;BME280;73535;52.500;13.482;2024-01-30T11:04:43;102386.97;;;6.94;58.49
83563;BME280;73535;52.500;13.482;2024-01-30T11:07:18;102395.41;;;7.04;58.37
83563;BME280;73535;52.500;13.482;2024-01-30T11:12:26;102395.09;;;7.16;57.57
83563;BME280;73535;52.500;13.482;2024-01-30T11:15:11;102385.31;;;7.22;56.73
83563;BME280;73535;52.500;13.482;2024-01-30T11:20:19;102386.75;;;7.32;56.26
83563;BME280;73535;52.500;13.482;2024-01-30T11:22:46;102383.97;;;7.38;55.78
83563;BME280;73535;52.500;13.482;2024-01-30T11:25:16;102390.84;;;7.43;55.69
83563;BME280;73535;52.500;13.482;2024-01-30T11:27:45;102380.22;;;7.47;55.86
83563;BME280;73535;52.500;13.482;2024-01-30T11:30:21;102375.84;;;7.48;55.65
83563;BME280;73535;52.500;13.482;2024-01-30T11:33:00;102375.69;;;7.52;55.80
83563;BME280;73535;52.500;13.482;2024-01-30T11:35:26;102373.84;;;7.56;55.94
83563;BME280;73535;52.500;13.482;2024-01-30T11:37:52;102374.72;;;7.56;55.46
83563;BME280;73535;52.500;13.482;2024-01-30T11:40:17;102380.66;;;7.61;55.45
83563;BME280;73535;52.500;13.482;2024-01-30T11:42:43;102375.41;;;7.63;55.66
83563;BME280;73535;52.500;13.482;2024-01-30T11:45:09;102372.69;;;7.66;55.59
83563;BME280;73535;52.500;13.482;2024-01-30T11:47:36;102376.91;;;7.70;55.38
83563;BME280;73535;52.500;13.482;2024-01-30T11:50:03;102373.34;;;7.72;55.29
83563;BME280;73535;52.500;13.482;2024-01-30T11:52:31;102368.88;;;7.76;55.69
83563;BME280;73535;52.500;13.482;2024-01-30T11:54:56;102373.94;;;7.82;55.36
83563;BME280;73535;52.500;13.482;2024-01-30T11:57:21;102362.59;;;7.81;55.54
83563;BME280;73535;52.500;13.482;2024-01-30T11:59:46;102372.84;;;7.89;55.47
83563;BME280;73535;52.500;13.482;2024-01-30T12:02:15;102363.22;;;7.89;55.48
83563;BME280;73535;52.500;13.482;2024-01-30T12:04:41;102364.91;;;7.92;55.31
83563;BME280;73535;52.500;13.482;2024-01-30T12:07:07;102361.25;;;7.96;55.20
83563;BME280;73535;52.500;13.482;2024-01-30T12:09:32;102356.09;;;7.94;55.45
83563;BME280;73535;52.500;13.482;2024-01-30T12:11:57;102362.88;;;8.00;55.54
83563;BME280;73535;52.500;13.482;2024-01-30T12:14:23;102355.81;;;8.02;55.59
83563;BME280;73535;52.500;13.482;2024-01-30T12:16:50;102352.22;;;8.06;55.66
83563;BME280;73535;52.500;13.482;2024-01-30T12:19:25;102350.41;;;8.08;55.85
83563;BME280;73535;52.500;13.482;2024-01-30T12:21:57;102345.06;;;8.11;55.41
83563;BME280;73535;52.500;13.482;2024-01-30T12:24:24;102345.13;;;8.10;55.62
83563;BME280;73535;52.500;13.482;2024-01-30T12:26:50;102343.25;;;8.13;55.58
83563;BME280;73535;52.500;13.482;2024-01-30T12:29:15;102338.00;;;8.13;55.76
83563;BME280;73535;52.500;13.482;2024-01-30T12:31:42;102336.00;;;8.21;56.11
83563;BME280;73535;52.500;13.482;2024-01-30T12:34:07;102333.50;;;8.18;55.91
83563;BME280;73535;52.500;13.482;2024-01-30T12:36:32;102329.84;;;8.22;55.91
83563;BME280;73535;52.500;13.482;2024-01-30T12:38:57;102322.06;;;8.21;56.00
83563;BME280;73535;52.500;13.482;2024-01-30T12:41:23;102311.41;;;8.25;55.88
83563;BME280;73535;52.500;13.482;2024-01-30T12:43:53;102317.50;;;8.26;56.28
83563;BME280;73535;52.500;13.482;2024-01-30T12:46:18;102305.13;;;8.31;56.22
83563;BME280;73535;52.500;13.482;2024-01-30T12:48:43;102297.25;;;8.32;56.25